KRRL/RRL METAR and TAF weather

Enter ICAO airport designator
Station Type Date Time Source
KRRL METAR 2021/09/16 11:35 UTC NOAA

KRRL 161135Z AUTO 00000KT 10SM CLR 11/08 A3004 RMK AO2 T01100081 TSNO


Station Type Date Time Source
KRRL Decoded METAR 2021/09/16 11:35 UTC NOAA

Merrill, Merrill Municipal Airport, WI, United States (KRRL) 45-11N 089-42W
Sep 16, 2021 - 07:35 AM EDT / 2021.09.16 1135 UTC
Wind: Calm:0
Visibility: 10 mile(s):0
Sky conditions: clear
Temperature: 51.8 F (11.0 C)
Dew Point: 46.6 F (8.1 C)
Relative Humidity: 82%
Pressure (altimeter): 30.04 in. Hg (1017 hPa)
ob: KRRL 161135Z AUTO 00000KT 10SM CLR 11/08 A3004 RMK AO2 T01100081 TSNO
cycle: 11

Station Type Date Time Source
KRRL TAF UTC NOAA

Error!

Example: see airport list